Time;durP1;ratioP1;P1;durP2;ratioP2;P2;SDS_P1;SDS_P2;PMS_P1;PMS_P2;Temp;Humidity;BMP_temperature;BMP_pressure;BME280_temperature;BME280_humidity;BME280_pressure;Samples;Min_cycle;Max_cycle;Signal;HPM_P1;HPM_P2
2022/09/10 00:00:32;;;;;;;27.13;16.98;;;14.60;99.90;;;;;;5032102;28;20033;-67
2022/09/10 00:02:57;;;;;;;20.77;15.43;;;14.60;99.90;;;;;;5032437;28;20045;-67
2022/09/10 00:05:23;;;;;;;22.70;15.63;;;14.70;99.90;;;;;;5032152;28;20041;-67
2022/09/10 00:07:49;;;;;;;19.38;15.65;;;14.50;99.90;;;;;;5034572;28;20033;-67
2022/09/10 00:10:14;;;;;;;24.25;17.60;;;14.60;99.90;;;;;;5035338;28;20103;-67
2022/09/10 00:12:41;;;;;;;25.52;17.17;;;14.50;99.90;;;;;;5017845;28;20120;-67
2022/09/10 00:15:08;;;;;;;24.45;17.15;;;14.50;99.90;;;;;;5035276;28;20041;-67
2022/09/10 00:17:35;;;;;;;27.38;17.38;;;14.60;99.90;;;;;;5017997;28;20392;-67
2022/09/10 00:20:02;;;;;;;26.00;17.52;;;14.60;99.90;;;;;;5018009;28;20049;-67
2022/09/10 00:22:27;;;;;;;25.48;16.83;;;14.60;99.90;;;;;;5035648;28;20046;-68
2022/09/10 00:24:54;;;;;;;24.48;17.00;;;14.60;99.90;;;;;;5035255;28;20061;-67
2022/09/10 00:27:20;;;;;;;24.75;16.90;;;14.60;99.90;;;;;;5035538;28;20073;-67
2022/09/10 00:29:45;;;;;;;31.35;18.92;;;14.50;99.90;;;;;;5017677;28;20515;-67
2022/09/10 00:32:11;;;;;;;24.85;17.00;;;14.50;99.90;;;;;;5017590;28;20037;-67
2022/09/10 00:34:36;;;;;;;27.98;18.42;;;14.60;99.90;;;;;;5035177;28;20037;-67
2022/09/10 00:37:02;;;;;;;27.98;19.35;;;14.40;99.90;;;;;;5035319;28;20045;-67
2022/09/10 00:39:27;;;;;;;26.95;17.88;;;14.50;99.90;;;;;;5017184;28;20057;-67
2022/09/10 00:41:54;;;;;;;26.55;18.40;;;14.60;99.90;;;;;;5035058;28;20045;-67
2022/09/10 00:44:38;;;;;;;29.23;17.92;;;14.40;99.90;;;;;;5035073;28;20072;-67
2022/09/10 00:47:16;;;;;;;34.03;20.63;;;14.40;99.90;;;;;;5005563;28;20085;-67
2022/09/10 00:49:47;;;;;;;30.35;19.33;;;14.50;99.90;;;;;;5017085;28;20038;-67
2022/09/10 00:52:14;;;;;;;31.45;19.33;;;14.50;99.90;;;;;;5035085;28;20033;-67
2022/09/10 00:54:41;;;;;;;26.05;18.58;;;14.50;99.90;;;;;;5034671;28;20041;-67
2022/09/10 00:57:13;;;;;;;29.27;19.52;;;14.40;99.90;;;;;;5017369;28;20102;-67
2022/09/10 00:59:51;;;;;;;34.35;23.15;;;14.50;99.90;;;;;;5033550;28;20045;-67
2022/09/10 01:02:17;;;;;;;41.35;23.42;;;14.50;99.90;;;;;;5004507;28;20045;-67
2022/09/10 01:04:44;;;;;;;36.80;23.88;;;14.60;99.90;;;;;;5034803;28;20164;-67
2022/09/10 01:07:11;;;;;;;42.28;23.95;;;14.60;99.90;;;;;;5016684;28;20249;-67
2022/09/10 01:09:37;;;;;;;38.03;26.08;;;14.70;99.90;;;;;;5016830;28;20438;-67
2022/09/10 01:12:15;;;;;;;40.88;26.48;;;14.70;99.90;;;;;;5016714;28;20102;-67
2022/09/10 01:14:59;;;;;;;38.33;24.58;;;14.80;99.90;;;;;;5016732;28;20045;-67
2022/09/10 01:17:48;;;;;;;43.85;26.15;;;14.70;99.90;;;;;;5016174;28;20041;-67
2022/09/10 01:20:44;;;;;;;33.45;24.40;;;14.70;99.90;;;;;;5034290;28;20041;-67
2022/09/10 01:23:40;;;;;;;42.63;25.02;;;14.70;99.90;;;;;;5016374;28;20095;-67
2022/09/10 01:26:21;;;;;;;;;;;14.60;99.90;;;;;;5016810;28;20042;-67
2022/09/10 01:29:19;;;;;;;36.58;25.63;;;14.60;99.90;;;;;;5034189;28;20391;-67
2022/09/10 01:31:54;;;;;;;41.42;24.80;;;14.70;99.90;;;;;;5024445;28;20085;-67
2022/09/10 01:34:31;;;;;;;42.10;23.40;;;14.70;99.90;;;;;;5014383;28;20046;-67
2022/09/10 01:37:03;;;;;;;36.20;23.98;;;15.00;99.90;;;;;;5034220;28;20033;-67
2022/09/10 01:39:29;;;;;;;36.55;23.95;;;14.70;99.90;;;;;;5034041;28;20076;-67
2022/09/10 01:41:55;;;;;;;36.22;25.02;;;14.80;99.90;;;;;;5033976;28;20041;-67
2022/09/10 01:44:44;;;;;;;35.75;24.33;;;14.70;99.90;;;;;;5033665;28;20048;-67
2022/09/10 01:47:39;;;;;;;38.53;24.27;;;14.90;99.90;;;;;;5033682;28;20041;-67
2022/09/10 01:50:33;;;;;;;34.60;23.50;;;14.70;99.90;;;;;;5018746;28;20038;-67
2022/09/10 01:53:02;;;;;;;40.75;26.42;;;14.90;99.90;;;;;;5015199;28;20552;-67
2022/09/10 01:55:49;;;;;;;36.15;24.20;;;14.60;99.90;;;;;;5033553;28;20499;-67
2022/09/10 01:58:29;;;;;;;33.95;24.50;;;14.90;99.90;;;;;;5002577;28;20075;-67
2022/09/10 02:01:15;;;;;;;44.00;25.60;;;14.70;99.90;;;;;;5033693;28;20077;-67
2022/09/10 02:03:44;;;;;;;39.10;24.55;;;14.70;99.90;;;;;;5033582;28;20038;-67
2022/09/10 02:06:15;;;;;;;39.70;25.70;;;14.60;99.90;;;;;;5033311;28;20492;-67
2022/09/10 02:08:44;;;;;;;41.35;25.15;;;14.70;99.90;;;;;;5033577;28;20058;-68
2022/09/10 02:11:13;;;;;;;42.00;26.08;;;14.70;99.90;;;;;;5032760;28;20065;-67
2022/09/10 02:13:41;;;;;;;41.92;27.20;;;14.70;99.90;;;;;;5033482;28;20037;-67
2022/09/10 02:16:15;;;;;;;39.00;26.58;;;14.60;99.90;;;;;;5015570;28;20112;-67
2022/09/10 02:18:43;;;;;;;45.25;26.77;;;14.70;99.90;;;;;;5019727;28;20045;-67
2022/09/10 02:21:11;;;;;;;42.40;26.52;;;14.80;99.90;;;;;;5015235;28;20037;-67
2022/09/10 02:23:47;;;;;;;43.45;28.50;;;14.70;99.90;;;;;;5015268;28;20041;-67
2022/09/10 02:26:14;;;;;;;46.38;27.88;;;14.70;99.90;;;;;;5033223;28;20068;-67
2022/09/10 02:28:42;;;;;;;48.13;28.30;;;14.70;99.90;;;;;;5015319;28;20116;-67
2022/09/10 02:31:08;;;;;;;45.70;28.50;;;14.80;99.90;;;;;;5015116;28;20468;-67
2022/09/10 02:33:33;;;;;;;48.50;28.50;;;14.70;99.90;;;;;;5033045;28;20069;-67
2022/09/10 02:35:59;;;;;;;51.08;29.77;;;14.60;99.90;;;;;;5033074;28;20153;-67
2022/09/10 02:38:25;;;;;;;48.78;29.25;;;14.60;99.90;;;;;;5032850;28;20078;-67
2022/09/10 02:40:51;;;;;;;46.45;27.58;;;14.60;99.90;;;;;;5015426;28;20441;-67
2022/09/10 02:43:16;;;;;;;45.17;28.77;;;14.60;99.90;;;;;;5033052;28;20155;-67
2022/09/10 02:45:42;;;;;;;48.65;28.00;;;14.60;99.90;;;;;;5032636;28;20073;-67
2022/09/10 02:48:08;;;;;;;48.33;29.73;;;14.60;99.90;;;;;;5032860;28;20041;-67
2022/09/10 02:50:34;;;;;;;45.28;27.55;;;14.50;99.90;;;;;;5015367;28;20442;-67
2022/09/10 02:53:00;;;;;;;47.28;28.00;;;14.50;99.90;;;;;;5032724;28;20498;-67
2022/09/10 02:55:26;;;;;;;57.63;28.98;;;14.40;99.90;;;;;;5015066;28;20069;-67
2022/09/10 02:57:52;;;;;;;45.88;27.70;;;14.70;99.90;;;;;;5015300;28;20045;-67
2022/09/10 03:00:19;;;;;;;50.50;29.13;;;14.60;99.90;;;;;;5015162;28;20104;-67
2022/09/10 03:02:46;;;;;;;43.97;27.23;;;14.60;99.90;;;;;;5032589;28;20037;-67
2022/09/10 03:05:13;;;;;;;48.33;28.65;;;14.60;99.90;;;;;;5032756;28;20038;-67
2022/09/10 03:07:38;;;;;;;45.92;26.38;;;14.50;99.90;;;;;;5014676;28;20553;-67
2022/09/10 03:10:04;;;;;;;45.80;27.85;;;14.60;99.90;;;;;;5032584;28;20050;-67
2022/09/10 03:12:30;;;;;;;42.35;27.27;;;14.60;99.90;;;;;;5032256;28;20480;-67
2022/09/10 03:14:57;;;;;;;45.42;26.30;;;14.50;99.90;;;;;;5032530;28;20043;-67
2022/09/10 03:17:24;;;;;;;49.30;27.20;;;14.50;99.90;;;;;;5032635;28;20037;-67
2022/09/10 03:19:50;;;;;;;43.40;27.02;;;14.50;99.90;;;;;;5032530;28;20480;-67
2022/09/10 03:22:15;;;;;;;44.15;26.98;;;14.50;99.90;;;;;;5032626;28;20102;-67
2022/09/10 03:24:42;;;;;;;44.97;26.55;;;14.50;99.90;;;;;;5032613;28;20116;-67
2022/09/10 03:27:07;;;;;;;41.72;25.77;;;14.30;99.90;;;;;;5032762;28;20091;-67
2022/09/10 03:29:33;;;;;;;40.03;25.13;;;14.50;99.90;;;;;;5014637;28;20038;-66
2022/09/10 03:32:00;;;;;;;41.45;26.40;;;14.80;99.90;;;;;;5014739;28;20041;-67
2022/09/10 03:34:25;;;;;;;41.70;25.63;;;14.50;99.90;;;;;;5032661;28;20049;-67
2022/09/10 03:36:51;;;;;;;42.75;24.23;;;14.60;99.90;;;;;;5014615;28;20550;-67
2022/09/10 03:39:17;;;;;;;46.22;27.17;;;14.90;99.90;;;;;;5014825;28;20045;-67
2022/09/10 03:41:44;;;;;;;41.78;24.92;;;14.70;99.90;;;;;;5033273;28;20041;-67
2022/09/10 03:44:10;;;;;;;43.00;24.50;;;14.50;99.90;;;;;;5018452;28;20423;-67
2022/09/10 03:46:37;;;;;;;52.95;26.83;;;14.50;99.90;;;;;;5018373;28;20095;-67
2022/09/10 03:49:03;;;;;;;40.05;24.38;;;14.40;99.90;;;;;;5036060;28;20044;-67
2022/09/10 03:51:30;;;;;;;37.92;24.00;;;14.40;99.90;;;;;;5018557;28;20104;-67
2022/09/10 03:53:58;;;;;;;44.03;25.30;;;14.60;99.90;;;;;;5036141;28;20048;-67
2022/09/10 03:56:23;;;;;;;41.50;24.88;;;14.50;99.90;;;;;;5035995;28;20041;-67
2022/09/10 03:58:49;;;;;;;39.88;24.00;;;14.60;99.90;;;;;;5035717;28;20041;-67
2022/09/10 04:01:16;;;;;;;39.53;24.38;;;14.40;99.90;;;;;;5035617;28;20037;-67
2022/09/10 04:03:41;;;;;;;44.47;24.98;;;14.40;99.90;;;;;;5036022;28;20369;-67
2022/09/10 04:06:12;;;;;;;43.65;24.63;;;14.40;99.90;;;;;;5035631;28;20128;-67
2022/09/10 04:08:38;;;;;;;36.40;23.48;;;14.40;99.90;;;;;;5025866;28;20085;-68
2022/09/10 04:11:04;;;;;;;39.03;23.42;;;14.40;99.90;;;;;;5035496;28;20041;-67
2022/09/10 04:13:33;;;;;;;37.60;23.98;;;14.50;99.90;;;;;;5018001;28;20045;-67
2022/09/10 04:15:59;;;;;;;39.30;24.50;;;14.50;99.90;;;;;;5035435;28;20041;-67
2022/09/10 04:18:26;;;;;;;42.08;24.40;;;14.40;99.90;;;;;;5018047;28;20095;-67
2022/09/10 04:20:53;;;;;;;38.28;24.23;;;14.50;99.90;;;;;;5001340;28;20049;-67
2022/09/10 04:23:19;;;;;;;39.00;24.88;;;14.50;99.90;;;;;;5035368;28;20033;-67
2022/09/10 04:25:45;;;;;;;42.08;24.17;;;14.40;99.90;;;;;;5035382;28;20033;-67
2022/09/10 04:28:11;;;;;;;38.90;23.38;;;14.40;99.90;;;;;;5035290;28;20053;-67
2022/09/10 04:30:39;;;;;;;41.13;24.20;;;14.50;99.90;;;;;;5001259;28;20052;-67
2022/09/10 04:33:05;;;;;;;41.10;23.55;;;14.50;99.90;;;;;;5017288;28;20057;-67
2022/09/10 04:35:31;;;;;;;37.80;23.88;;;14.50;99.90;;;;;;5035312;28;20045;-67
2022/09/10 04:37:56;;;;;;;38.13;24.60;;;14.30;99.90;;;;;;5017442;28;20041;-67
2022/09/10 04:40:22;;;;;;;39.00;23.27;;;14.50;99.90;;;;;;5035252;28;20116;-67
2022/09/10 04:42:48;;;;;;;36.75;24.45;;;14.50;99.90;;;;;;5017531;28;20067;-67
2022/09/10 04:45:13;;;;;;;37.20;23.30;;;14.40;99.90;;;;;;5017215;28;20041;-68
2022/09/10 04:47:39;;;;;;;41.28;23.75;;;14.50;99.90;;;;;;5001061;28;20076;-67
2022/09/10 04:50:05;;;;;;;39.97;22.92;;;14.60;99.90;;;;;;5035209;28;20496;-67
2022/09/10 04:52:31;;;;;;;42.03;23.92;;;14.50;99.90;;;;;;5034729;28;20148;-68
2022/09/10 04:54:58;;;;;;;38.63;22.02;;;14.60;99.90;;;;;;5035259;28;20468;-67
2022/09/10 04:57:24;;;;;;;38.08;24.20;;;14.60;99.90;;;;;;5034661;28;20096;-67
2022/09/10 04:59:51;;;;;;;40.13;23.60;;;14.60;99.90;;;;;;5034743;28;20142;-67
2022/09/10 05:02:17;;;;;;;42.33;23.95;;;14.50;99.90;;;;;;5000929;28;20431;-67
2022/09/10 05:04:43;;;;;;;39.47;23.65;;;14.20;99.90;;;;;;5000152;28;20046;-67
2022/09/10 05:07:09;;;;;;;46.22;24.80;;;14.70;99.90;;;;;;5026749;28;20399;-67
2022/09/10 05:09:34;;;;;;;42.17;24.00;;;14.80;99.90;;;;;;5016636;28;20048;-67
2022/09/10 05:12:01;;;;;;;42.78;23.88;;;14.70;99.90;;;;;;5016788;28;20099;-67
2022/09/10 05:14:28;;;;;;;41.53;22.05;;;14.70;99.90;;;;;;5034390;28;20120;-67
2022/09/10 05:16:54;;;;;;;44.67;24.13;;;14.70;99.90;;;;;;5034662;28;20045;-67
2022/09/10 05:19:20;;;;;;;41.42;23.25;;;14.70;99.90;;;;;;5034363;28;20041;-68
2022/09/10 05:21:49;;;;;;;41.33;22.83;;;14.80;99.90;;;;;;5016583;28;20124;-67
2022/09/10 05:24:15;;;;;;;42.47;23.58;;;14.60;99.90;;;;;;5034215;28;20049;-67
2022/09/10 05:26:42;;;;;;;48.05;21.92;;;14.60;99.90;;;;;;5033964;28;20033;-67
2022/09/10 05:29:07;;;;;;;41.80;22.63;;;14.60;99.90;;;;;;5034398;28;20041;-67
2022/09/10 05:31:34;;;;;;;38.33;23.13;;;14.60;99.90;;;;;;5034179;28;20507;-67
2022/09/10 05:34:00;;;;;;;41.75;23.05;;;14.80;99.90;;;;;;5034278;28;20045;-68
2022/09/10 05:36:32;;;;;;;35.95;23.02;;;14.70;99.90;;;;;;5034288;28;20389;-67
2022/09/10 05:38:59;;;;;;;38.97;23.75;;;14.70;99.90;;;;;;5034243;28;20037;-67
2022/09/10 05:41:24;;;;;;;41.47;25.27;;;14.60;99.90;;;;;;5033668;28;20036;-67
2022/09/10 05:43:50;;;;;;;38.47;23.02;;;14.60;99.90;;;;;;5033685;28;20038;-67
2022/09/10 05:46:16;;;;;;;39.88;22.33;;;14.80;99.90;;;;;;5016219;28;20037;-67
2022/09/10 05:48:42;;;;;;;43.30;23.55;;;14.80;99.90;;;;;;5015964;28;20439;-68
2022/09/10 05:51:07;;;;;;;43.17;24.70;;;14.80;99.90;;;;;;5033873;28;20249;-67
2022/09/10 05:53:34;;;;;;;40.35;22.60;;;14.90;99.90;;;;;;5033940;28;20033;-67
2022/09/10 05:56:00;;;;;;;38.35;23.30;;;14.70;99.90;;;;;;5016062;28;20091;-68
2022/09/10 05:58:26;;;;;;;42.92;22.33;;;14.80;99.90;;;;;;5033645;28;20037;-67
2022/09/10 06:00:57;;;;;;;42.47;22.70;;;14.90;99.90;;;;;;5033421;28;20121;-67
2022/09/10 06:03:23;;;;;;;32.47;21.83;;;14.80;99.90;;;;;;5016163;28;20088;-68
2022/09/10 06:05:52;;;;;;;38.90;23.38;;;14.70;99.90;;;;;;5032640;28;20050;-67
2022/09/10 06:08:21;;;;;;;34.95;21.52;;;15.00;99.90;;;;;;5015773;28;20037;-68
2022/09/10 06:11:13;;;;;;;38.70;23.27;;;15.10;99.90;;;;;;5015562;28;20045;-68
2022/09/10 06:13:41;;;;;;;42.20;21.75;;;15.10;99.90;;;;;;5027452;28;20050;-68
2022/09/10 06:16:07;;;;;;;41.10;21.27;;;15.10;99.90;;;;;;5015814;28;20068;-67
2022/09/10 06:18:33;;;;;;;43.33;23.02;;;15.10;99.90;;;;;;5015459;28;20056;-67
2022/09/10 06:21:03;;;;;;;38.70;23.40;;;14.90;99.90;;;;;;5032518;28;20034;-67
2022/09/10 06:23:30;;;;;;;44.45;23.10;;;15.10;99.90;;;;;;5001956;28;20456;-67
2022/09/10 06:26:08;;;;;;;43.25;22.05;;;15.30;99.90;;;;;;5032750;28;20037;-67
2022/09/10 06:28:34;;;;;;;39.47;22.15;;;15.20;99.90;;;;;;5014843;28;20484;-67
2022/09/10 06:31:02;;;;;;;41.88;22.92;;;15.00;99.90;;;;;;5014830;28;20044;-67
2022/09/10 06:33:28;;;;;;;43.88;22.42;;;15.10;99.90;;;;;;5011893;28;20052;-67
2022/09/10 06:35:55;;;;;;;46.72;24.00;;;15.20;99.90;;;;;;5030070;28;20037;-67
2022/09/10 06:38:21;;;;;;;41.72;23.13;;;;;;;;;;5014702;28;20072;-69
2022/09/10 06:40:56;;;;;;;40.08;22.45;;;15.00;99.90;;;;;;5013343;28;20041;-68
2022/09/10 06:43:22;;;;;;;;;;;15.10;99.90;;;;;;5013238;28;20526;-67
2022/09/10 06:45:52;;;;;;;38.88;23.10;;;15.00;99.90;;;;;;5031739;28;19925;-66
2022/09/10 06:48:26;;;;;;;44.38;23.63;;;15.10;99.90;;;;;;5018344;28;20073;-66
2022/09/10 06:50:57;;;;;;;42.17;23.13;;;15.20;99.90;;;;;;5000763;28;20041;-68
2022/09/10 06:53:25;;;;;;;40.75;23.90;;;15.20;99.90;;;;;;5011048;28;20490;-68
2022/09/10 06:55:52;;;;;;;41.13;22.50;;;15.10;99.90;;;;;;5002386;28;20053;-67
2022/09/10 06:58:19;;;;;;;47.95;24.30;;;15.10;99.90;;;;;;5013655;28;20049;-67
2022/09/10 07:00:49;;;;;;;45.85;24.13;;;15.20;99.90;;;;;;4998542;28;20037;-66
2022/09/10 07:03:19;;;;;;;38.22;22.98;;;15.20;99.90;;;;;;4995767;28;20096;-66
2022/09/10 07:05:45;;;;;;;38.05;22.90;;;15.10;99.90;;;;;;5016485;28;20053;-66
2022/09/10 07:08:13;;;;;;;44.88;23.77;;;15.20;99.90;;;;;;5019048;28;20038;-67
2022/09/10 07:10:39;;;;;;;43.38;24.20;;;15.20;99.90;;;;;;4996017;28;20050;-67
2022/09/10 07:13:05;;;;;;;39.65;24.38;;;15.30;99.90;;;;;;5014823;28;20080;-66
2022/09/10 07:15:32;;;;;;;42.83;24.77;;;15.30;99.90;;;;;;5013951;28;20042;-67
2022/09/10 07:17:58;;;;;;;41.70;23.92;;;15.60;99.90;;;;;;5020788;28;20033;-67
2022/09/10 07:20:24;;;;;;;37.97;22.83;;;15.30;99.90;;;;;;5001920;28;20443;-66
2022/09/10 07:22:55;;;;;;;41.80;22.83;;;15.60;99.90;;;;;;5001684;28;20103;-67
2022/09/10 07:25:25;;;;;;;35.97;22.17;;;15.60;99.90;;;;;;5017293;28;20052;-67
2022/09/10 07:27:51;;;;;;;40.83;23.42;;;15.80;99.90;;;;;;5007899;28;20140;-67
2022/09/10 07:30:17;;;;;;;39.85;23.52;;;16.10;99.90;;;;;;5036264;28;20380;-67
2022/09/10 07:32:44;;;;;;;32.70;21.92;;;16.20;99.90;;;;;;5036238;28;20461;-67
2022/09/10 07:35:10;;;;;;;38.63;22.40;;;16.00;99.90;;;;;;5018940;28;20041;-67
2022/09/10 07:37:38;;;;;;;38.30;23.27;;;16.20;99.90;;;;;;5021918;28;20380;-67
2022/09/10 07:40:04;;;;;;;34.63;21.38;;;16.60;99.90;;;;;;5018235;28;20049;-67
2022/09/10 07:42:30;;;;;;;36.83;22.00;;;16.70;99.90;;;;;;5036131;28;20041;-67
2022/09/10 07:44:55;;;;;;;30.30;21.00;;;16.70;99.90;;;;;;5036106;28;20048;-67
2022/09/10 07:47:22;;;;;;;33.72;20.02;;;16.70;99.90;;;;;;5035912;28;20038;-67
2022/09/10 07:49:47;;;;;;;34.20;20.40;;;16.60;99.90;;;;;;5036323;28;20042;-67
2022/09/10 07:52:13;;;;;;;32.83;20.02;;;16.60;99.90;;;;;;5035944;28;20048;-67
2022/09/10 07:54:38;;;;;;;32.05;20.52;;;16.40;99.90;;;;;;5018170;28;20045;-67
2022/09/10 07:57:04;;;;;;;33.10;19.90;;;16.40;99.90;;;;;;5035711;28;20044;-67
2022/09/10 07:59:30;;;;;;;36.63;22.08;;;16.40;99.90;;;;;;5019333;28;20127;-67
2022/09/10 08:02:00;;;;;;;33.45;20.38;;;16.40;99.90;;;;;;5035119;28;20083;-67
2022/09/10 08:04:27;;;;;;;33.30;19.75;;;;;;;;;;5034428;28;20768;-67
2022/09/10 08:06:52;;;;;;;29.60;20.27;;;16.30;99.90;;;;;;5035444;28;20040;-67
2022/09/10 08:09:18;;;;;;;29.85;19.13;;;16.30;99.90;;;;;;5035218;28;20054;-67
2022/09/10 08:11:44;;;;;;;30.33;19.52;;;16.20;99.90;;;;;;5017543;28;20411;-67
2022/09/10 08:14:09;;;;;;;34.30;19.40;;;16.30;99.90;;;;;;5018144;28;20057;-67
2022/09/10 08:16:35;;;;;;;33.58;20.55;;;16.40;99.90;;;;;;5035196;28;20538;-67
2022/09/10 08:19:01;;;;;;;32.35;18.00;;;;;;;;;;5017957;28;20033;-67
2022/09/10 08:21:30;;;;;;;29.35;19.02;;;16.40;99.90;;;;;;5017732;28;20056;-67
2022/09/10 08:23:56;;;;;;;29.27;19.13;;;16.50;99.90;;;;;;5017483;28;20495;-67
2022/09/10 08:26:24;;;;;;;35.40;19.92;;;16.30;99.90;;;;;;5034999;28;20037;-67
2022/09/10 08:28:50;;;;;;;30.40;18.90;;;16.20;99.90;;;;;;5034518;28;20033;-68
2022/09/10 08:31:16;;;;;;;32.63;18.88;;;16.50;99.90;;;;;;5017316;28;20045;-67
2022/09/10 08:33:47;;;;;;;28.55;18.00;;;16.70;99.90;;;;;;5035298;28;20099;-68
2022/09/10 08:36:15;;;;;;;29.23;17.27;;;16.40;99.90;;;;;;5034961;28;20164;-68
2022/09/10 08:38:42;;;;;;;28.27;18.67;;;16.50;99.90;;;;;;5034579;28;20045;-67
2022/09/10 08:41:37;;;;;;;31.33;18.42;;;16.60;99.90;;;;;;5026391;28;20021;-68
2022/09/10 08:44:08;;;;;;;28.67;18.88;;;16.60;99.90;;;;;;5012622;28;20045;-67
2022/09/10 08:46:43;;;;;;;26.02;18.00;;;16.70;99.90;;;;;;5017298;28;20081;-68
2022/09/10 08:49:34;;;;;;;27.10;17.83;;;16.70;99.90;;;;;;5032705;28;20037;-68
2022/09/10 08:52:28;;;;;;;25.90;16.75;;;16.70;99.90;;;;;;4987429;28;20045;-68
2022/09/10 08:55:18;;;;;;;24.10;17.23;;;16.70;99.90;;;;;;5017026;28;20061;-68
2022/09/10 08:57:53;;;;;;;31.35;17.08;;;16.90;99.90;;;;;;5015687;28;20132;-68
2022/09/10 09:00:25;;;;;;;25.92;16.25;;;16.90;99.90;;;;;;5016782;28;20115;-68
2022/09/10 09:03:10;;;;;;;25.25;15.68;;;16.70;99.90;;;;;;5034630;28;20112;-67
2022/09/10 09:05:44;;;;;;;21.05;15.02;;;17.10;99.90;;;;;;5034453;28;20116;-67
2022/09/10 09:08:13;;;;;;;19.42;12.95;;;16.90;99.90;;;;;;5028556;28;20069;-67
2022/09/10 09:10:48;;;;;;;21.17;12.98;;;17.00;99.90;;;;;;5034029;28;20184;-67
2022/09/10 09:13:54;;;;;;;19.02;12.90;;;17.10;99.90;;;;;;5002968;28;20034;-66
2022/09/10 09:16:39;;;;;;;;;;;17.10;99.90;;;;;;5020332;28;20064;-67
2022/09/10 09:19:31;;;;;;;21.13;13.82;;;17.20;99.90;;;;;;5013149;28;20018;-66
2022/09/10 09:22:14;;;;;;;20.65;12.50;;;17.30;99.90;;;;;;5012862;28;20038;-66
2022/09/10 09:24:57;;;;;;;21.38;13.15;;;17.20;99.90;;;;;;5030887;28;20045;-67
2022/09/10 09:27:26;;;;;;;21.52;13.80;;;17.50;99.90;;;;;;5033554;28;20108;-67
2022/09/10 09:30:05;;;;;;;21.95;13.07;;;17.30;99.90;;;;;;5013411;28;20064;-67
2022/09/10 09:32:34;;;;;;;19.80;12.27;;;17.30;99.90;;;;;;5013141;28;20087;-67
2022/09/10 09:35:31;;;;;;;17.20;11.65;;;17.30;99.90;;;;;;5032067;28;20523;-67
2022/09/10 09:38:25;;;;;;;19.48;12.23;;;17.60;99.90;;;;;;5015702;28;20499;-67
2022/09/10 09:41:14;;;;;;;17.80;12.02;;;17.80;99.90;;;;;;5029969;28;20037;-67
2022/09/10 09:43:55;;;;;;;17.88;10.48;;;17.80;99.90;;;;;;5009887;28;20459;-67
2022/09/10 09:46:23;;;;;;;14.48;10.95;;;17.70;99.90;;;;;;5015435;28;20041;-67
2022/09/10 09:48:53;;;;;;;12.43;9.98;;;17.60;99.90;;;;;;5017769;28;20132;-67
2022/09/10 09:51:20;;;;;;;15.10;10.27;;;17.90;99.90;;;;;;5015042;28;20128;-67
2022/09/10 09:53:59;;;;;;;14.05;9.70;;;17.70;99.90;;;;;;5015156;28;20084;-67
2022/09/10 09:56:29;;;;;;;12.30;9.40;;;18.10;99.90;;;;;;5021539;28;20033;-67
2022/09/10 09:58:57;;;;;;;13.85;9.27;;;18.10;99.90;;;;;;5032528;28;20503;-67
2022/09/10 10:01:36;;;;;;;15.40;9.30;;;18.10;99.90;;;;;;5083620;28;20881;-65
2022/09/10 10:04:02;;;;;;;13.23;9.13;;;18.30;99.90;;;;;;5067942;28;20083;-65
2022/09/10 10:06:29;;;;;;;13.65;9.05;;;18.30;99.90;;;;;;5066875;28;20049;-65
2022/09/10 10:09:20;;;;;;;13.68;10.13;;;18.40;99.90;;;;;;5050092;28;20128;-65
2022/09/10 10:11:57;;;;;;;12.57;9.02;;;18.40;99.90;;;;;;5062081;28;20051;-65
2022/09/10 10:14:35;;;;;;;10.40;8.35;;;18.60;99.90;;;;;;5052497;28;20037;-65
2022/09/10 10:17:01;;;;;;;12.35;8.15;;;18.60;99.90;;;;;;5056995;28;20094;-65
2022/09/10 10:19:32;;;;;;;12.00;9.02;;;18.80;99.90;;;;;;5067315;28;20049;-65
2022/09/10 10:22:13;;;;;;;9.63;8.07;;;18.70;99.90;;;;;;5064605;28;20533;-66
2022/09/10 10:24:44;;;;;;;16.02;8.20;;;19.20;99.90;;;;;;5053113;28;20052;-67
2022/09/10 10:27:19;;;;;;;12.27;8.32;;;18.80;99.90;;;;;;5056862;28;20497;-67
2022/09/10 10:30:11;;;;;;;9.38;7.40;;;18.70;99.90;;;;;;5058604;28;20447;-67
2022/09/10 10:32:39;;;;;;;14.85;8.68;;;18.50;99.90;;;;;;5066869;28;20466;-67
2022/09/10 10:35:24;;;;;;;11.25;8.45;;;18.70;99.90;;;;;;5062219;28;20048;-66
2022/09/10 10:38:02;;;;;;;12.97;8.10;;;18.90;99.90;;;;;;5057334;28;20163;-67
2022/09/10 10:40:42;;;;;;;20.30;9.45;;;18.90;99.90;;;;;;5056575;28;20306;-67
2022/09/10 10:43:18;;;;;;;12.57;8.52;;;19.10;99.90;;;;;;5068377;28;20549;-67
2022/09/10 10:46:06;;;;;;;12.15;7.47;;;19.30;99.90;;;;;;5066805;28;20102;-66
2022/09/10 10:48:42;;;;;;;10.52;7.97;;;19.30;99.90;;;;;;5067764;28;20041;-67
2022/09/10 10:51:16;;;;;;;10.38;6.80;;;19.30;99.90;;;;;;5067694;28;20040;-67
2022/09/10 10:54:15;;;;;;;10.93;6.88;;;19.20;99.90;;;;;;5067949;28;20069;-67
2022/09/10 10:56:44;;;;;;;10.95;7.90;;;19.60;99.90;;;;;;5064169;28;20055;-67
2022/09/10 10:59:43;;;;;;;14.18;8.18;;;19.20;99.90;;;;;;5067301;28;20045;-67
2022/09/10 11:02:23;;;;;;;9.50;6.60;;;19.40;99.90;;;;;;5061922;28;20037;-67
2022/09/10 11:04:54;;;;;;;10.95;6.65;;;19.50;99.90;;;;;;5064936;28;20045;-67
2022/09/10 11:07:26;;;;;;;13.32;7.32;;;19.60;99.90;;;;;;5072325;28;20124;-67
2022/09/10 11:10:14;;;;;;;10.35;7.07;;;19.30;99.90;;;;;;5064517;28;20090;-67
2022/09/10 11:13:08;;;;;;;9.98;7.78;;;19.50;99.90;;;;;;5055079;28;20533;-67
2022/09/10 11:16:00;;;;;;;14.23;7.20;;;19.40;99.90;;;;;;5052620;28;20388;-66
2022/09/10 11:18:49;;;;;;;15.07;7.40;;;19.50;99.90;;;;;;5043203;28;20052;-67
2022/09/10 11:21:28;;;;;;;12.18;8.23;;;19.50;99.90;;;;;;5052063;28;20033;-67
2022/09/10 11:24:18;;;;;;;15.20;7.40;;;19.50;99.90;;;;;;5053941;28;20083;-67
2022/09/10 11:26:49;;;;;;;11.35;7.95;;;19.50;99.90;;;;;;5053775;28;20037;-67
2022/09/10 11:29:55;;;;;;;12.90;7.22;;;19.40;99.90;;;;;;5055068;28;20447;-67
2022/09/10 11:32:39;;;;;;;13.85;7.13;;;19.80;99.90;;;;;;5048972;28;20041;-67
2022/09/10 11:35:20;;;;;;;17.95;7.40;;;19.70;99.90;;;;;;5052854;28;20505;-67
2022/09/10 11:37:52;;;;;;;11.75;7.20;;;19.70;99.90;;;;;;5053777;28;20069;-67
2022/09/10 11:40:28;;;;;;;12.93;6.97;;;19.90;99.90;;;;;;5053569;28;20072;-67
2022/09/10 11:42:59;;;;;;;13.32;7.90;;;19.80;99.90;;;;;;5054873;28;20037;-67
2022/09/10 11:45:24;;;;;;;10.02;6.53;;;20.00;99.90;;;;;;5053973;28;20521;-67
2022/09/10 11:47:59;;;;;;;9.82;5.97;;;19.90;99.90;;;;;;5035954;28;20076;-67
2022/09/10 11:50:43;;;;;;;12.00;6.90;;;20.00;99.90;;;;;;5046802;28;20102;-67
2022/09/10 11:53:14;;;;;;;11.77;5.95;;;20.10;99.90;;;;;;5042418;28;20037;-67
2022/09/10 11:55:56;;;;;;;9.52;6.30;;;19.80;99.90;;;;;;5045747;28;20090;-67
2022/09/10 11:58:52;;;;;;;11.23;6.85;;;19.90;99.90;;;;;;5044745;28;20039;-67
2022/09/10 12:01:51;;;;;;;15.35;7.43;;;20.10;99.90;;;;;;5028355;28;20093;-67
2022/09/10 12:04:21;;;;;;;11.40;6.95;;;19.80;99.90;;;;;;5038893;28;20098;-68
2022/09/10 12:07:20;;;;;;;10.57;7.68;;;20.10;99.90;;;;;;5055500;28;20043;-68
2022/09/10 12:10:04;;;;;;;12.93;7.18;;;19.80;99.90;;;;;;5036982;28;20040;-67
2022/09/10 12:12:48;;;;;;;11.20;7.73;;;19.90;99.90;;;;;;5053331;28;20053;-68
2022/09/10 12:15:23;;;;;;;15.27;8.80;;;19.80;99.90;;;;;;5054280;28;20079;-68
2022/09/10 12:18:05;;;;;;;11.68;6.72;;;20.00;99.90;;;;;;5036498;28;20040;-68
2022/09/10 12:20:37;;;;;;;10.93;6.50;;;19.90;99.90;;;;;;5052953;28;20136;-68
2022/09/10 12:23:04;;;;;;;11.65;6.28;;;20.00;99.90;;;;;;5051789;28;20040;-68
2022/09/10 12:25:31;;;;;;;10.95;6.43;;;20.00;99.90;;;;;;5052871;28;20494;-68
2022/09/10 12:28:02;;;;;;;11.27;6.30;;;20.00;99.90;;;;;;5053881;28;20546;-68
2022/09/10 12:30:28;;;;;;;8.32;5.88;;;20.10;99.90;;;;;;5054210;28;20048;-68
2022/09/10 12:32:58;;;;;;;11.55;6.50;;;20.00;99.90;;;;;;5052772;28;20106;-68
2022/09/10 12:35:36;;;;;;;10.02;6.15;;;20.20;99.90;;;;;;5047035;28;20052;-68
2022/09/10 12:38:39;;;;;;;10.13;6.03;;;20.20;99.90;;;;;;5030619;28;20037;-68
2022/09/10 12:41:35;;;;;;;10.60;6.65;;;20.20;99.90;;;;;;5052481;28;20041;-68
2022/09/10 12:44:23;;;;;;;10.23;5.40;;;20.30;99.90;;;;;;5042111;28;20048;-67
2022/09/10 12:47:15;;;;;;;10.30;5.38;;;20.20;99.90;;;;;;5047247;28;20123;-68
2022/09/10 12:49:47;;;;;;;12.43;6.20;;;20.20;99.90;;;;;;5040060;28;20399;-67
2022/09/10 12:52:19;;;;;;;11.63;6.97;;;20.30;99.90;;;;;;5053035;28;20041;-67
2022/09/10 12:55:21;;;;;;;10.15;7.10;;;20.50;99.90;;;;;;5051653;28;20141;-67